Time;durP1;ratioP1;P1;durP2;ratioP2;P2;SDS_P1;SDS_P2;PMS_P1;PMS_P2;Temp;Humidity;BMP_temperature;BMP_pressure;BME280_temperature;BME280_humidity;BME280_pressure;Samples;Min_cycle;Max_cycle;Signal;HPM_P1;HPM_P2
2021/10/09 00:01:53;;;;;;;15.25;9.98;;;;;;;10.17;41.13;101637.91;1818505;77;21104;-60
2021/10/09 00:04:19;;;;;;;16.23;10.48;;;;;;;10.14;41.20;101636.80;1813831;77;21074;-61
2021/10/09 00:06:46;;;;;;;13.75;9.65;;;;;;;10.10;41.29;101636.22;1810743;77;21510;-61
2021/10/09 00:09:12;;;;;;;16.93;10.00;;;;;;;10.07;41.43;101634.28;1818276;77;21037;-60
2021/10/09 02:51:33;;;;;;;13.30;10.43;;;;;;;9.71;44.37;101589.19;1812137;78;28041;-59
2021/10/09 02:54:00;;;;;;;14.80;10.08;;;;;;;9.80;43.76;101588.48;1779423;78;21092;-62
2021/10/09 02:56:27;;;;;;;14.28;9.73;;;;;;;9.75;43.58;101588.47;1790096;79;21153;-59
2021/10/09 02:58:53;;;;;;;12.55;9.55;;;;;;;9.65;43.50;101592.31;1767675;79;20985;-58
2021/10/09 03:20:29;;;;;;;14.78;9.65;;;;;;;11.55;40.44;101584.69;1750549;82;28471;-60
2021/10/09 03:22:56;;;;;;;15.90;10.00;;;;;;;11.54;40.19;101594.50;1698998;83;21054;-60
2021/10/09 03:25:23;;;;;;;17.23;10.78;;;;;;;11.32;40.26;101595.47;1692334;83;21163;-59
2021/10/09 03:27:49;;;;;;;11.55;8.90;;;;;;;11.08;40.48;101589.02;1708043;81;21022;-59
2021/10/09 03:30:16;;;;;;;11.78;9.18;;;;;;;10.86;40.73;101589.10;1704823;81;21012;-59
2021/10/09 03:32:43;;;;;;;13.90;9.55;;;;;;;10.63;41.02;101597.95;1712019;82;21030;-59
2021/10/09 03:35:09;;;;;;;17.85;9.03;;;;;;;10.45;41.30;101593.25;1710797;83;21567;-59
2021/10/09 03:37:38;;;;;;;16.62;9.53;;;;;;;10.27;41.58;101589.73;1704943;82;21864;-59
2021/10/09 03:40:09;;;;;;;20.82;10.20;;;;;;;10.11;41.85;101586.11;1731391;81;21052;-60
2021/10/09 03:48:37;;;;;;;14.45;9.58;;;;;;;9.71;42.51;101589.67;1695002;83;21529;-60
2021/10/09 03:50:34;;;;;;;23.00;10.63;;;;;;;9.57;42.73;101588.08;1669725;83;21484;-60
2021/10/09 03:52:49;;;;;;;16.12;9.88;;;;;;;9.45;42.89;101585.87;1689601;83;21091;-59
2021/10/09 03:55:17;;;;;;;16.73;9.93;;;;;;;9.36;43.10;101593.19;1706931;82;21561;-59
2021/10/09 03:57:45;;;;;;;18.50;10.50;;;;;;;9.27;43.27;101591.22;1701120;82;21075;-60
2021/10/09 04:00:14;;;;;;;21.75;9.55;;;;;;;9.19;43.45;101602.39;1703529;82;21516;-62
2021/10/09 04:02:46;;;;;;;25.60;12.30;;;;;;;9.10;43.61;101601.28;1702468;82;21113;-59
2021/10/09 04:05:13;;;;;;;22.73;10.00;;;;;;;9.02;43.78;101604.50;1702349;82;21550;-60
2021/10/09 04:07:39;;;;;;;22.67;11.65;;;;;;;8.97;43.88;101613.25;1704073;82;21025;-59
2021/10/09 04:10:08;;;;;;;27.20;10.43;;;;;;;8.92;44.03;101613.22;1718728;83;21008;-59
2021/10/09 04:12:35;;;;;;;24.85;11.65;;;;;;;8.87;44.15;101604.78;1729680;83;21041;-64
2021/10/09 04:15:01;;;;;;;20.48;10.35;;;;;;;8.82;44.26;101615.69;1729580;83;21158;-59
2021/10/09 04:17:29;;;;;;;21.73;10.30;;;;;;;8.76;44.37;101618.30;1729179;83;21014;-59
2021/10/09 04:19:56;;;;;;;17.10;10.98;;;;;;;8.71;44.48;101624.89;1725538;83;21054;-60
2021/10/09 04:22:22;;;;;;;16.42;10.60;;;;;;;8.66;44.57;101616.80;1723627;83;21178;-59
2021/10/09 04:24:51;;;;;;;17.27;9.95;;;;;;;8.64;44.62;101623.17;1723384;83;21061;-60
2021/10/09 04:27:18;;;;;;;17.27;9.33;;;;;;;8.59;44.79;101622.64;1723679;83;21221;-62
2021/10/09 04:29:45;;;;;;;21.17;10.40;;;;;;;8.57;44.83;101621.42;1723288;83;21038;-59
2021/10/09 04:32:11;;;;;;;14.63;9.90;;;;;;;8.56;44.92;101631.66;1692179;83;21005;-60
2021/10/09 04:34:38;;;;;;;18.25;10.25;;;;;;;8.53;45.03;101632.35;1722954;83;21033;-60
2021/10/09 04:37:04;;;;;;;21.70;9.90;;;;;;;8.50;45.15;101631.23;1723476;83;21109;-60
2021/10/09 04:39:32;;;;;;;15.48;10.35;;;;;;;8.46;45.20;101631.47;1723456;83;21133;-60
2021/10/09 04:41:59;;;;;;;19.32;10.00;;;;;;;8.44;45.32;101636.03;1721697;83;21021;-59
2021/10/09 04:44:28;;;;;;;18.62;10.90;;;;;;;8.42;45.37;101633.97;1721888;83;21089;-60
2021/10/09 04:46:55;;;;;;;15.93;10.03;;;;;;;8.40;45.47;101638.95;1723491;83;21074;-59
2021/10/09 04:49:21;;;;;;;17.07;9.98;;;;;;;8.37;45.55;101637.37;1723478;83;21037;-59
2021/10/09 04:51:48;;;;;;;17.40;10.38;;;;;;;8.36;45.63;101639.63;1723381;83;21141;-59
2021/10/09 04:54:15;;;;;;;15.53;9.95;;;;;;;8.34;45.67;101634.09;1723693;83;21002;-60
2021/10/09 04:56:42;;;;;;;14.83;10.18;;;;;;;8.35;45.69;101635.80;1722775;83;22100;-59
2021/10/09 04:59:08;;;;;;;21.37;10.80;;;;;;;8.33;45.78;101631.92;1723316;83;21588;-59
2021/10/09 05:01:35;;;;;;;21.55;10.32;;;;;;;8.31;45.89;101633.83;1713327;83;21123;-60
2021/10/09 05:04:02;;;;;;;16.40;9.73;;;;;;;8.30;45.94;101636.09;1715517;83;21213;-60
2021/10/09 05:06:30;;;;;;;17.52;9.58;;;;;;;8.30;45.99;101636.58;1722800;83;21100;-60
2021/10/09 05:08:58;;;;;;;13.83;9.35;;;;;;;8.30;46.06;101639.23;1714846;83;21052;-59
2021/10/09 05:11:25;;;;;;;16.50;9.80;;;;;;;8.30;46.05;101642.72;1723774;81;21098;-58
2021/10/09 05:13:52;;;;;;;19.07;9.28;;;;;;;8.29;45.99;101639.72;1723011;83;21053;-59
2021/10/09 05:16:20;;;;;;;16.35;10.32;;;;;;;8.30;45.98;101645.85;1723263;83;21144;-61
2021/10/09 05:18:47;;;;;;;16.70;10.40;;;;;;;8.30;46.04;101637.91;1715253;83;21046;-59
2021/10/09 05:21:13;;;;;;;17.45;10.32;;;;;;;8.31;46.11;101642.27;1715533;83;21544;-59
2021/10/09 05:23:40;;;;;;;18.35;10.72;;;;;;;8.32;46.15;101638.16;1721104;83;21002;-59
2021/10/09 05:26:07;;;;;;;20.20;11.25;;;;;;;8.32;46.10;101640.80;1710353;82;21073;-59
2021/10/09 05:28:42;;;;;;;20.80;10.90;;;;;;;8.33;46.12;101643.84;1689522;83;21264;-61
2021/10/09 05:31:09;;;;;;;19.77;10.82;;;;;;;8.34;46.15;101633.60;1715720;83;21619;-60
2021/10/09 05:36:04;;;;;;;17.75;10.38;;;;;;;8.39;46.21;101640.76;1719532;83;21571;-60
2021/10/09 05:38:31;;;;;;;23.02;11.78;;;;;;;8.40;46.14;101634.97;1712336;83;21010;-59
2021/10/09 05:40:58;;;;;;;25.27;11.00;;;;;;;8.43;46.11;101633.48;1668126;85;21170;-61
2021/10/09 05:43:26;;;;;;;21.62;11.50;;;;;;;8.44;46.11;101633.83;1720938;83;21074;-60
2021/10/09 05:45:53;;;;;;;17.95;11.43;;;;;;;8.46;46.09;101639.41;1721146;83;21034;-60
2021/10/09 05:48:20;;;;;;;20.50;11.33;;;;;;;8.49;46.11;101642.31;1697680;83;21164;-59
2021/10/09 05:56:03;;;;;;;18.70;9.65;;;;;;;8.59;45.93;101645.16;1721065;83;21104;-60
2021/10/09 05:58:45;;;;;;;17.73;9.98;;;;;;;8.61;45.87;101641.92;1698255;83;21101;-59
2021/10/09 06:49:52;;;;;;;15.95;9.15;;;;;;;9.15;43.34;101654.80;1705433;83;21097;-60
2021/10/09 07:00:25;;;;;;;12.95;8.05;;;;;;;9.31;42.99;101665.61;1722598;83;21149;-60
2021/10/09 07:02:52;;;;;;;17.23;9.10;;;;;;;9.35;42.97;101665.75;1718436;82;21028;-60
2021/10/09 07:05:19;;;;;;;14.30;9.23;;;;;;;9.39;43.01;101665.43;1711757;83;21049;-61
2021/10/09 07:08:09;;;;;;;;;;;;;;;9.44;42.98;101664.63;1740594;81;21065;-62
2021/10/09 07:10:33;;;;;;;12.85;7.70;;;;;;;9.49;42.70;101661.61;1722607;82;20158;-60
2021/10/09 07:12:59;;;;;;;11.57;8.05;;;;;;;9.51;42.64;101665.00;1727360;81;21153;-61
2021/10/09 07:15:27;;;;;;;10.93;8.30;;;;;;;9.57;42.53;101659.72;1737616;81;21747;-61
2021/10/09 07:17:54;;;;;;;11.18;8.48;;;;;;;9.63;42.42;101658.77;1733520;82;22164;-61
2021/10/09 07:20:21;;;;;;;13.03;7.60;;;;;;;9.70;42.23;101659.66;1702137;83;21044;-60
2021/10/09 07:22:48;;;;;;;11.73;8.38;;;;;;;9.76;42.18;101659.19;1710413;83;21048;-61
2021/10/09 07:25:16;;;;;;;10.60;8.25;;;;;;;9.82;42.09;101664.86;1699634;84;21249;-59
2021/10/09 07:27:43;;;;;;;11.73;8.88;;;;;;;9.88;42.01;101662.72;1696893;84;21528;-59
2021/10/09 07:30:10;;;;;;;16.32;8.53;;;;;;;9.95;41.94;101667.94;1736169;81;21078;-60
2021/10/09 07:32:37;;;;;;;13.75;9.20;;;;;;;10.01;41.84;101663.48;1720952;83;21030;-58
2021/10/09 07:35:05;;;;;;;12.55;8.20;;;;;;;10.08;41.83;101664.67;1703394;83;21053;-57
2021/10/09 07:37:33;;;;;;;16.00;8.45;;;;;;;10.13;41.75;101664.34;1692071;83;21148;-59
2021/10/09 07:40:00;;;;;;;12.55;8.38;;;;;;;10.19;41.55;101663.86;1701750;83;21066;-58
2021/10/09 07:42:26;;;;;;;11.10;8.38;;;;;;;10.25;41.37;101662.05;1697095;83;21066;-58
2021/10/09 07:44:52;;;;;;;14.28;8.70;;;;;;;10.32;41.22;101663.80;1734512;82;21105;-59
2021/10/09 07:47:19;;;;;;;15.20;8.93;;;;;;;10.36;41.04;101664.76;1727184;82;21079;-60
2021/10/09 07:49:45;;;;;;;11.28;8.38;;;;;;;10.42;40.87;101662.11;1732047;82;21100;-59
2021/10/09 07:52:11;;;;;;;14.35;7.67;;;;;;;10.49;40.67;101662.00;1733457;82;21816;-58
2021/10/09 07:54:37;;;;;;;16.12;9.03;;;;;;;10.56;40.58;101659.20;1721420;82;21473;-60
2021/10/09 07:57:05;;;;;;;16.10;8.70;;;;;;;10.63;40.45;101657.75;1687575;83;21090;-58
2021/10/09 07:59:33;;;;;;;14.13;8.78;;;;;;;10.71;40.41;101657.14;1695721;84;21679;-59
2021/10/09 08:01:59;;;;;;;13.93;8.98;;;;;;;10.78;40.29;101657.02;1720178;83;21147;-59
2021/10/09 08:04:28;;;;;;;11.43;8.28;;;;;;;10.85;40.24;101658.69;1718372;83;21324;-58
2021/10/09 08:06:54;;;;;;;10.85;7.80;;;;;;;10.93;40.13;101660.73;1716526;83;21049;-59
2021/10/09 08:09:21;;;;;;;12.63;8.08;;;;;;;11.02;39.85;101657.34;1703008;82;21098;-59
2021/10/09 08:11:49;;;;;;;11.75;8.50;;;;;;;11.10;39.62;101657.56;1721089;81;21082;-61
2021/10/09 08:14:15;;;;;;;11.78;8.15;;;;;;;11.18;39.57;101657.80;1724969;82;21069;-59
2021/10/09 08:16:42;;;;;;;10.40;7.65;;;;;;;11.27;39.22;101660.67;1721707;81;21089;-59
2021/10/09 08:19:09;;;;;;;13.72;7.90;;;;;;;11.35;39.07;101659.05;1729919;81;21025;-59
2021/10/09 08:21:41;;;;;;;10.90;7.33;;;;;;;11.44;38.91;101656.13;1717851;82;21052;-60
2021/10/09 08:24:17;;;;;;;9.45;6.60;;;;;;;11.53;38.61;101659.84;1691540;83;21624;-58
2021/10/09 08:39:42;;;;;;;10.60;7.00;;;;;;;12.10;37.53;101639.11;1688709;83;21148;-58
2021/10/09 08:42:09;;;;;;;10.63;6.17;;;;;;;12.19;37.40;101630.34;1675703;84;21543;-59
2021/10/09 08:44:38;;;;;;;11.33;5.87;;;;;;;12.30;37.01;101620.89;1711215;83;21057;-58
2021/10/09 08:47:05;;;;;;;10.38;4.12;;;;;;;12.41;35.72;101631.13;1673762;83;21048;-58
2021/10/09 08:49:33;;;;;;;8.98;4.42;;;;;;;12.50;34.75;101631.67;1673332;83;21036;-58
2021/10/09 08:52:01;;;;;;;8.70;3.87;;;;;;;12.61;34.08;101634.20;1679413;83;21140;-58
2021/10/09 08:54:35;;;;;;;6.37;3.85;;;;;;;12.72;33.53;101633.27;1701266;83;21016;-59
2021/10/09 08:57:13;;;;;;;8.10;3.62;;;;;;;12.82;33.03;101627.47;1675972;83;21109;-59
2021/10/09 09:00:04;;;;;;;7.00;3.30;;;;;;;12.94;32.57;101628.19;1694752;83;21128;-58
2021/10/09 09:02:31;;;;;;;6.62;3.67;;;;;;;13.04;32.23;101629.07;1684929;83;21040;-58
2021/10/09 09:05:10;;;;;;;10.25;4.20;;;;;;;13.15;31.90;101625.41;1686733;84;21474;-58
2021/10/09 09:27:10;;;;;;;8.13;2.98;;;;;;;14.06;29.58;101607.25;1716069;81;21061;-61
2021/10/09 09:40:12;;;;;;;9.25;2.87;;;;;;;14.68;28.22;101602.69;1718791;83;21012;-59
2021/10/09 09:42:43;;;;;;;5.33;2.80;;;;;;;14.81;27.99;101599.17;1701809;83;21129;-59
2021/10/09 09:45:11;;;;;;;5.90;2.87;;;;;;;14.93;27.69;101597.98;1689412;83;21212;-59
2021/10/09 09:47:40;;;;;;;7.22;2.95;;;;;;;15.05;27.49;101597.27;1736299;82;21561;-59
2021/10/09 09:50:10;;;;;;;7.00;2.52;;;;;;;15.16;27.74;101577.94;1730926;82;21125;-59
2021/10/09 09:52:44;;;;;;;5.92;2.92;;;;;;;15.26;27.52;101600.98;1736305;82;21553;-59
2021/10/09 09:55:13;;;;;;;6.85;2.87;;;;;;;15.39;27.19;101601.91;1721430;81;21565;-59
2021/10/09 09:57:40;;;;;;;6.75;2.67;;;;;;;15.52;26.78;101606.87;1721225;83;21152;-61
2021/10/09 10:00:14;;;;;;;5.08;3.45;;;;;;;15.62;26.63;101591.55;1713539;83;21129;-59
2021/10/09 10:02:54;;;;;;;6.03;2.67;;;;;;;15.72;26.57;101586.95;1718970;83;21030;-58
2021/10/09 10:05:24;;;;;;;4.92;2.62;;;;;;;15.84;26.34;101582.20;1715084;82;21123;-59
2021/10/09 10:07:51;;;;;;;7.55;2.80;;;;;;;15.97;26.29;101584.95;1712248;83;21040;-59
2021/10/09 10:10:18;;;;;;;7.05;3.08;;;;;;;16.08;26.12;101580.15;1709717;83;21127;-58
2021/10/09 10:12:47;;;;;;;9.35;2.92;;;;;;;16.21;26.21;101582.91;1712785;83;21519;-59
2021/10/09 10:15:14;;;;;;;5.83;2.65;;;;;;;16.33;25.98;101578.11;1688985;83;21091;-60
2021/10/09 10:17:44;;;;;;;4.72;2.80;;;;;;;16.45;26.02;101580.31;1699731;83;21096;-59
2021/10/09 10:20:16;;;;;;;5.53;2.75;;;;;;;16.58;25.99;101577.70;1711902;83;21066;-58
2021/10/09 10:22:53;;;;;;;3.62;2.72;;;;;;;16.69;25.53;101574.20;1714242;83;21145;-59
2021/10/09 10:25:34;;;;;;;6.83;3.00;;;;;;;16.82;25.25;101573.75;1702857;83;21531;-59
2021/10/09 10:28:08;;;;;;;4.90;2.40;;;;;;;16.94;25.34;101570.27;1716445;83;21081;-60
2021/10/09 10:30:49;;;;;;;7.97;2.90;;;;;;;17.05;25.12;101563.21;1717488;83;21059;-59
2021/10/09 10:33:21;;;;;;;4.25;2.72;;;;;;;17.18;24.90;101569.45;1717088;83;21089;-57
2021/10/09 10:35:49;;;;;;;4.17;2.70;;;;;;;17.30;24.65;101558.69;1709560;83;21147;-59
2021/10/09 10:38:35;;;;;;;6.12;2.60;;;;;;;17.41;24.62;101554.84;1703377;83;21006;-58
2021/10/09 10:41:06;;;;;;;8.63;3.10;;;;;;;17.53;24.52;101559.36;1705720;83;21069;-59
2021/10/09 10:43:44;;;;;;;5.65;2.62;;;;;;;17.65;24.12;101562.53;1700458;83;21106;-59
2021/10/09 10:46:29;;;;;;;4.50;2.55;;;;;;;17.76;23.93;101555.47;1697019;83;21109;-59
2021/10/09 10:48:58;;;;;;;5.70;3.62;;;;;;;17.88;23.80;101549.25;1703855;83;21186;-58
2021/10/09 10:51:50;;;;;;;6.35;2.80;;;;;;;17.99;23.74;101550.75;1694385;83;21058;-60
2021/10/09 10:57:02;;;;;;;6.47;3.05;;;;;;;18.18;23.41;101539.58;1724630;83;21141;-58
2021/10/09 10:59:49;;;;;;;4.80;2.80;;;;;;;18.27;23.40;101546.61;1723728;83;21041;-58
2021/10/09 11:02:18;;;;;;;5.62;3.50;;;;;;;18.37;23.24;101538.81;1691525;83;23330;-60
2021/10/09 11:04:55;;;;;;;4.40;2.72;;;;;;;18.44;23.05;101543.83;1692266;83;21569;-58
2021/10/09 11:07:34;;;;;;;4.20;2.87;;;;;;;18.50;22.89;101547.16;1703256;83;21049;-58
2021/10/09 11:10:10;;;;;;;4.60;2.60;;;;;;;18.54;22.78;101536.36;1723235;82;21073;-58
2021/10/09 11:12:49;;;;;;;5.53;2.85;;;;;;;18.56;22.59;101539.75;1716082;83;21620;-57
2021/10/09 11:15:25;;;;;;;6.80;2.87;;;;;;;18.57;22.39;101545.44;1700081;83;21105;-59
2021/10/09 11:17:58;;;;;;;4.55;2.77;;;;;;;18.58;22.38;101547.13;1720629;83;21109;-58
2021/10/09 11:20:27;;;;;;;4.60;2.75;;;;;;;18.62;22.36;101540.38;1716492;83;21065;-59
2021/10/09 11:22:56;;;;;;;4.37;2.70;;;;;;;18.67;22.25;101537.97;1723185;83;21505;-59
2021/10/09 11:25:41;;;;;;;3.90;2.47;;;;;;;18.70;22.20;101527.86;1723266;83;21049;-58
2021/10/09 11:28:25;;;;;;;4.80;3.20;;;;;;;18.74;22.28;101517.92;1723250;83;21991;-59
2021/10/09 11:30:51;;;;;;;3.85;2.83;;;;;;;18.80;22.31;101526.66;1715573;83;21074;-57
2021/10/09 11:33:26;;;;;;;3.37;2.72;;;;;;;18.91;22.19;101524.55;1712762;83;21023;-58
2021/10/09 11:35:53;;;;;;;5.80;2.67;;;;;;;18.99;22.02;101524.00;1723926;83;21112;-58
2021/10/09 11:38:25;;;;;;;8.98;2.60;;;;;;;19.09;21.86;101523.75;1696200;84;21061;-58
2021/10/09 11:41:05;;;;;;;4.62;2.60;;;;;;;19.17;21.89;101520.16;1696451;84;22260;-58
2021/10/09 11:43:46;;;;;;;4.95;2.90;;;;;;;19.25;21.79;101523.59;1704213;84;21616;-58
2021/10/09 11:46:14;;;;;;;5.53;2.70;;;;;;;19.36;21.93;101516.95;1719670;83;21606;-59
2021/10/09 11:56:45;;;;;;;4.05;2.95;;;;;;;19.87;21.43;101514.92;1666688;83;21470;-59
2021/10/09 11:59:13;;;;;;;6.20;3.08;;;;;;;19.98;21.59;101510.41;1721403;83;21058;-58
2021/10/09 12:01:46;;;;;;;3.85;2.55;;;;;;;20.14;21.53;101506.67;1721536;83;21085;-58
2021/10/09 12:04:21;;;;;;;4.40;2.80;;;;;;;20.39;21.33;101507.18;1721737;83;21053;-58
2021/10/09 12:06:55;;;;;;;4.33;2.70;;;;;;;20.79;21.17;101510.88;1721569;83;21165;-58
2021/10/09 12:09:42;;;;;;;;;;;;;;;21.23;20.76;101504.41;1724484;83;21071;-58
2021/10/09 12:12:17;;;;;;;2.87;2.62;;;;;;;21.69;20.41;101502.59;1721884;83;20212;-57
2021/10/09 12:14:43;;;;;;;3.15;2.50;;;;;;;22.13;20.10;101494.56;1721837;83;21535;-59
2021/10/09 12:17:10;;;;;;;3.52;2.70;;;;;;;22.53;19.77;101487.13;1721872;83;21070;-58
2021/10/09 12:19:36;;;;;;;8.08;2.65;;;;;;;22.85;19.59;101482.82;1721275;83;21138;-58
2021/10/09 12:22:13;;;;;;;4.55;2.27;;;;;;;23.15;19.38;101487.32;1721317;82;21106;-59
2021/10/09 12:24:49;;;;;;;2.77;2.52;;;;;;;23.43;19.10;101484.06;1721497;82;21054;-59
2021/10/09 12:27:19;;;;;;;3.17;2.42;;;;;;;23.68;18.86;101485.08;1692452;84;21655;-58
2021/10/09 12:30:05;;;;;;;5.03;2.85;;;;;;;23.90;18.72;101470.72;1692477;84;21069;-59
2021/10/09 12:32:46;;;;;;;4.45;2.77;;;;;;;24.08;18.59;101480.87;1692464;84;21035;-58
2021/10/09 12:35:23;;;;;;;4.30;2.42;;;;;;;24.12;18.65;101472.60;1692820;84;21544;-59
2021/10/09 12:38:00;;;;;;;5.03;2.80;;;;;;;24.03;18.65;101479.34;1691939;83;21112;-58
2021/10/09 12:40:47;;;;;;;3.42;2.90;;;;;;;23.88;18.62;101471.47;1721246;83;21054;-58
2021/10/09 12:43:19;;;;;;;5.03;2.65;;;;;;;23.70;18.73;101463.98;1721314;83;21021;-57
2021/10/09 12:45:46;;;;;;;4.85;2.55;;;;;;;23.52;18.80;101465.17;1721680;83;21844;-58
2021/10/09 12:48:13;;;;;;;4.50;2.62;;;;;;;23.32;18.87;101463.33;1721158;83;21043;-59
2021/10/09 12:50:43;;;;;;;5.78;2.67;;;;;;;23.20;18.96;101469.59;1721683;83;21137;-58
2021/10/09 12:53:09;;;;;;;3.62;2.50;;;;;;;23.08;19.13;101466.19;1721208;83;21586;-57
2021/10/09 12:55:36;;;;;;;3.70;2.75;;;;;;;22.99;19.15;101465.22;1721382;83;21579;-59
2021/10/09 12:58:05;;;;;;;2.80;2.55;;;;;;;22.91;19.13;101456.23;1721424;82;21142;-58
2021/10/09 13:00:31;;;;;;;3.67;2.42;;;;;;;22.84;19.14;101461.34;1721937;83;21567;-58
2021/10/09 13:02:58;;;;;;;3.15;2.72;;;;;;;22.77;19.03;101445.92;1721722;82;21586;-61
2021/10/09 13:05:27;;;;;;;5.17;2.33;;;;;;;22.71;18.92;101456.20;1721928;83;21122;-59
2021/10/09 13:07:54;;;;;;;4.05;2.30;;;;;;;22.66;18.84;101449.77;1721829;83;21027;-61
2021/10/09 13:10:21;;;;;;;3.45;2.20;;;;;;;22.60;18.83;101447.37;1721692;83;21055;-59
2021/10/09 13:12:50;;;;;;;3.27;2.80;;;;;;;22.57;18.88;101464.02;1721606;82;21149;-60
2021/10/09 13:15:17;;;;;;;4.10;2.83;;;;;;;22.53;18.93;101460.87;1721603;83;21070;-58
2021/10/09 13:17:45;;;;;;;3.62;2.58;;;;;;;22.51;18.94;101458.08;1721849;83;21070;-59
2021/10/09 13:20:12;;;;;;;4.03;2.50;;;;;;;22.41;18.93;101444.94;1721797;83;21059;-59
2021/10/09 13:22:39;;;;;;;2.92;2.60;;;;;;;22.47;18.77;101448.17;1721675;82;21141;-59
2021/10/09 13:25:06;;;;;;;6.87;3.10;;;;;;;22.45;18.78;101454.84;1721546;83;21056;-58
2021/10/09 13:27:35;;;;;;;4.47;2.70;;;;;;;22.42;18.78;101451.17;1721265;83;21119;-57
2021/10/09 13:30:03;;;;;;;5.62;2.42;;;;;;;22.38;18.88;101450.75;1721214;83;21031;-58
2021/10/09 13:32:31;;;;;;;5.25;2.83;;;;;;;22.35;18.97;101448.47;1721211;83;21044;-57
2021/10/09 13:34:58;;;;;;;6.15;2.90;;;;;;;22.29;18.98;101439.78;1721134;83;21139;-59
2021/10/09 13:37:26;;;;;;;6.05;3.60;;;;;;;22.24;19.03;101446.31;1721231;83;21602;-58
2021/10/09 13:39:54;;;;;;;7.78;2.92;;;;;;;22.16;19.12;101445.98;1721295;83;21075;-59
2021/10/09 13:42:20;;;;;;;4.08;2.70;;;;;;;22.02;19.08;101436.98;1721551;83;21106;-59
2021/10/09 13:44:46;;;;;;;5.33;2.77;;;;;;;21.88;19.07;101446.89;1721329;82;21068;-58
2021/10/09 13:47:13;;;;;;;3.52;2.60;;;;;;;21.71;19.36;101448.27;1721231;83;23280;-65
2021/10/09 13:49:40;;;;;;;4.62;2.77;;;;;;;21.53;19.44;101443.39;1721143;83;21047;-58
2021/10/09 13:52:07;;;;;;;4.40;2.90;;;;;;;21.34;19.62;101446.26;1721124;82;21130;-59
2021/10/09 13:54:33;;;;;;;4.67;2.77;;;;;;;21.13;19.43;101444.45;1721149;83;21096;-60
2021/10/09 13:57:00;;;;;;;4.78;2.40;;;;;;;20.90;19.63;101448.23;1721661;83;21081;-59
2021/10/09 13:59:26;;;;;;;5.42;2.90;;;;;;;20.70;19.71;101446.69;1721797;83;21070;-62
2021/10/09 14:01:52;;;;;;;3.90;2.25;;;;;;;20.52;20.09;101441.72;1721609;83;21134;-63
2021/10/09 14:04:19;;;;;;;4.70;2.87;;;;;;;20.37;21.40;101443.63;1721718;83;21105;-60
2021/10/09 14:06:45;;;;;;;3.47;2.70;;;;;;;20.21;20.97;101446.89;1721704;83;21095;-58
2021/10/09 14:09:11;;;;;;;4.62;2.90;;;;;;;20.05;20.80;101444.43;1721756;83;21087;-58
2021/10/09 14:11:39;;;;;;;3.50;2.85;;;;;;;19.92;20.72;101442.39;1721572;83;21162;-56
2021/10/09 14:14:05;;;;;;;4.10;3.02;;;;;;;19.78;20.69;101440.53;1721686;83;21530;-58
2021/10/09 14:16:31;;;;;;;6.08;2.80;;;;;;;19.65;20.72;101443.87;1673922;83;21043;-57
2021/10/09 14:18:58;;;;;;;5.72;2.80;;;;;;;19.53;20.76;101437.26;1721684;82;21070;-58
2021/10/09 14:21:24;;;;;;;4.65;3.27;;;;;;;19.40;20.85;101441.97;1721797;83;21134;-58
2021/10/09 14:23:50;;;;;;;5.67;3.40;;;;;;;19.27;20.94;101442.59;1728797;83;21094;-58
2021/10/09 14:26:17;;;;;;;5.35;2.98;;;;;;;19.15;21.10;101437.34;1732450;82;21076;-57
2021/10/09 14:28:43;;;;;;;6.83;3.75;;;;;;;19.04;21.21;101445.34;1750119;82;20996;-58
2021/10/09 14:31:09;;;;;;;7.95;3.20;;;;;;;18.92;21.40;101442.77;1750002;82;21051;-58
2021/10/09 14:33:36;;;;;;;9.40;3.98;;;;;;;18.79;21.63;101439.30;1734828;82;21051;-59
2021/10/09 14:36:03;;;;;;;4.92;3.85;;;;;;;18.69;21.73;101441.41;1749974;81;21762;-61
2021/10/09 14:38:29;;;;;;;5.10;3.00;;;;;;;18.56;21.81;101442.86;1736306;81;21039;-61
2021/10/09 14:40:55;;;;;;;6.78;3.40;;;;;;;18.46;21.91;101443.58;1734712;82;21029;-58
2021/10/09 14:43:21;;;;;;;6.70;3.27;;;;;;;18.34;22.07;101445.02;1734969;82;21476;-58
2021/10/09 14:45:50;;;;;;;7.53;3.37;;;;;;;18.23;22.20;101444.41;1735951;82;21033;-61
2021/10/09 14:48:22;;;;;;;9.03;3.90;;;;;;;18.14;22.32;101441.44;1750087;82;21331;-59
2021/10/09 14:53:30;;;;;;;6.05;3.42;;;;;;;17.94;22.64;101446.90;1734712;82;21013;-59
2021/10/09 15:20:08;;;;;;;7.75;3.45;;;;;;;16.86;24.19;101443.59;1705400;84;21116;-58
2021/10/09 15:22:35;;;;;;;5.72;4.50;;;;;;;16.75;24.48;101451.12;1674209;85;21093;-58
2021/10/09 15:27:37;;;;;;;4.47;3.75;;;;;;;16.59;24.99;101457.28;1870359;76;22494;-58
2021/10/09 15:30:06;;;;;;;7.95;4.00;;;;;;;16.42;25.20;101453.76;1826379;78;21028;-58
2021/10/09 15:32:34;;;;;;;9.88;4.95;;;;;;;16.33;25.45;101454.73;1787784;78;20933;-57
2021/10/09 15:35:00;;;;;;;9.78;4.08;;;;;;;16.21;25.67;101461.73;1782411;80;20956;-58
2021/10/09 15:37:29;;;;;;;6.42;3.80;;;;;;;16.11;25.97;101459.20;1782539;80;21009;-60
2021/10/09 15:39:56;;;;;;;5.62;4.10;;;;;;;16.01;26.33;101458.98;1782551;80;20897;-57
2021/10/09 15:42:22;;;;;;;7.87;3.60;;;;;;;15.91;26.60;101461.28;1782659;80;21024;-57
2021/10/09 15:44:48;;;;;;;6.62;3.75;;;;;;;15.81;26.83;101460.58;1782531;80;21083;-58
2021/10/09 15:47:15;;;;;;;8.33;4.25;;;;;;;15.71;27.04;101463.34;1808012;77;21005;-59
2021/10/09 15:49:41;;;;;;;6.87;4.10;;;;;;;15.62;27.31;101466.14;1826579;78;20995;-58
2021/10/09 15:52:07;;;;;;;11.50;4.25;;;;;;;15.52;27.46;101460.39;1826458;77;21029;-57
2021/10/09 15:54:34;;;;;;;5.33;4.25;;;;;;;15.46;27.40;101466.89;1826593;78;21493;-59
2021/10/09 15:57:00;;;;;;;8.35;4.70;;;;;;;15.39;27.41;101463.99;1826481;78;21125;-58
2021/10/09 15:59:26;;;;;;;6.45;4.40;;;;;;;15.34;27.34;101471.17;1826564;78;21013;-59
2021/10/09 16:01:53;;;;;;;10.20;5.28;;;;;;;15.28;27.40;101469.63;1826462;77;21026;-58
2021/10/09 16:04:19;;;;;;;9.33;4.87;;;;;;;15.23;27.38;101469.25;1826903;78;20992;-58
2021/10/09 16:06:46;;;;;;;13.25;5.17;;;;;;;15.16;27.52;101471.70;1826497;78;20989;-59
2021/10/09 16:09:13;;;;;;;12.93;5.83;;;;;;;15.09;27.69;101471.49;1826824;78;21108;-58
2021/10/09 16:11:41;;;;;;;7.90;5.35;;;;;;;15.03;27.73;101471.28;1826469;78;21010;-57
2021/10/09 16:14:07;;;;;;;8.50;5.12;;;;;;;14.98;27.77;101474.91;1826451;78;21006;-59
2021/10/09 16:16:35;;;;;;;9.48;5.58;;;;;;;14.93;27.99;101471.34;1826570;78;21492;-57
2021/10/09 16:19:01;;;;;;;10.85;6.10;;;;;;;14.88;28.18;101479.02;1826762;78;21504;-58
2021/10/09 16:21:28;;;;;;;14.13;6.05;;;;;;;14.82;28.19;101475.62;1826537;78;22133;-59
2021/10/09 16:23:54;;;;;;;13.10;6.62;;;;;;;14.77;28.51;101480.08;1826400;78;21501;-57
2021/10/09 16:26:21;;;;;;;12.20;6.30;;;;;;;14.71;28.86;101476.17;1826389;78;21014;-57
2021/10/09 16:28:50;;;;;;;14.78;6.55;;;;;;;14.65;29.09;101480.80;1826353;78;21005;-58
2021/10/09 16:31:16;;;;;;;15.72;6.92;;;;;;;14.59;29.24;101484.09;1785896;77;21543;-58
2021/10/09 16:33:43;;;;;;;22.13;7.15;;;;;;;14.52;29.46;101483.81;1782856;80;21292;-57
2021/10/09 16:36:10;;;;;;;16.12;6.78;;;;;;;14.45;29.63;101481.42;1782419;80;21062;-58
2021/10/09 16:38:36;;;;;;;15.98;7.47;;;;;;;14.40;29.76;101480.19;1782147;80;21033;-58
2021/10/09 16:41:03;;;;;;;13.88;7.30;;;;;;;14.32;29.88;101479.09;1782001;80;21080;-58
2021/10/09 16:43:30;;;;;;;14.10;7.53;;;;;;;14.29;29.99;101483.89;1781983;78;21091;-57
2021/10/09 16:45:56;;;;;;;21.37;7.15;;;;;;;14.22;30.14;101481.50;1781998;80;21123;-58
2021/10/09 16:48:23;;;;;;;16.62;7.42;;;;;;;14.15;30.32;101480.73;1781883;80;21040;-59
2021/10/09 16:50:49;;;;;;;17.55;8.05;;;;;;;14.09;30.50;101485.84;1782109;80;21507;-58
2021/10/09 16:53:15;;;;;;;19.45;7.97;;;;;;;14.03;30.67;101479.77;1781989;80;21065;-59
2021/10/09 16:55:42;;;;;;;16.93;7.70;;;;;;;13.97;30.68;101485.20;1782161;78;21504;-59
2021/10/09 16:58:08;;;;;;;16.95;9.20;;;;;;;13.90;30.82;101478.25;1782144;80;21126;-58
2021/10/09 17:00:35;;;;;;;13.38;7.97;;;;;;;13.86;30.91;101487.56;1782376;80;21028;-58
2021/10/09 17:03:01;;;;;;;18.90;7.80;;;;;;;13.80;31.02;101484.64;1781940;80;21048;-57